createdAt,value
2023-04-29T00:00:00.747Z,22.1
2023-04-29T00:01:02.636Z,22.1
2023-04-29T00:02:04.520Z,22
2023-04-29T00:03:06.921Z,22
2023-04-29T00:04:09.645Z,22
2023-04-29T00:05:12.705Z,22
2023-04-29T00:06:16.004Z,22
2023-04-29T00:07:18.640Z,22
2023-04-29T00:08:20.494Z,22
2023-04-29T00:09:22.269Z,22
2023-04-29T00:10:24.086Z,22
2023-04-29T00:11:25.935Z,22
2023-04-29T00:12:27.781Z,22
2023-04-29T00:13:29.537Z,22
2023-04-29T00:14:31.450Z,22
2023-04-29T00:15:33.317Z,22
2023-04-29T00:16:35.210Z,22
2023-04-29T00:17:37.371Z,22
2023-04-29T00:18:39.533Z,22
2023-04-29T00:19:41.475Z,22
2023-04-29T00:20:43.317Z,22
2023-04-29T00:21:45.350Z,22
2023-04-29T00:22:47.211Z,22
2023-04-29T00:23:48.931Z,21.9
2023-04-29T00:24:50.700Z,21.9
2023-04-29T00:25:52.545Z,21.9
2023-04-29T00:26:54.401Z,21.9
2023-04-29T00:27:56.246Z,21.9
2023-04-29T00:28:58.110Z,21.9
2023-04-29T00:30:00.016Z,21.9
2023-04-29T00:31:01.850Z,21.9
2023-04-29T00:32:03.962Z,21.9
2023-04-29T00:33:06.203Z,21.9
2023-04-29T00:34:08.311Z,21.9
2023-04-29T00:35:10.185Z,21.9
2023-04-29T00:36:12.069Z,21.9
2023-04-29T00:37:13.824Z,21.9
2023-04-29T00:38:15.589Z,21.9
2023-04-29T00:39:17.475Z,21.9
2023-04-29T00:40:19.436Z,21.8
2023-04-29T00:41:21.326Z,21.8
2023-04-29T00:42:23.176Z,21.8
2023-04-29T00:43:25.013Z,21.8
2023-04-29T00:44:26.780Z,21.8
2023-04-29T00:45:28.789Z,21.8
2023-04-29T00:46:33.245Z,21.8
2023-04-29T00:47:35.410Z,21.8
2023-04-29T00:48:37.342Z,21.8
2023-04-29T00:49:39.217Z,21.8
2023-04-29T00:50:41.134Z,21.8
2023-04-29T00:51:42.890Z,21.8
2023-04-29T00:52:47.304Z,21.8
2023-04-29T00:53:49.772Z,21.8
2023-04-29T00:54:51.536Z,21.8
2023-04-29T00:55:53.390Z,21.8
2023-04-29T00:56:55.229Z,21.7
2023-04-29T00:57:57.060Z,21.7
2023-04-29T00:58:58.858Z,21.7
2023-04-29T01:00:00.778Z,21.7
2023-04-29T01:01:02.830Z,21.7
2023-04-29T01:02:04.778Z,21.7
2023-04-29T01:03:06.679Z,21.7
2023-04-29T01:04:09.254Z,21.7
2023-04-29T01:05:12.169Z,21.7
2023-04-29T01:06:14.086Z,21.7
2023-04-29T01:07:15.871Z,21.7
2023-04-29T01:08:18.597Z,21.7
2023-04-29T01:09:20.488Z,21.6
2023-04-29T01:10:22.414Z,21.6
2023-04-29T01:11:24.386Z,21.6
2023-04-29T01:12:26.169Z,21.6
2023-04-29T01:13:27.998Z,21.6
2023-04-29T01:14:29.821Z,21.6
2023-04-29T01:15:31.696Z,21.6
2023-04-29T01:16:33.556Z,21.6
2023-04-29T01:17:35.820Z,21.6
2023-04-29T01:18:37.858Z,21.6
2023-04-29T01:19:39.710Z,21.6
2023-04-29T01:20:41.668Z,21.6
2023-04-29T01:21:43.609Z,21.6
2023-04-29T01:22:45.469Z,21.6
2023-04-29T01:23:47.307Z,21.6
2023-04-29T01:24:49.162Z,21.6
2023-04-29T01:25:51.014Z,21.6
2023-04-29T01:26:52.931Z,21.5
2023-04-29T01:27:54.808Z,21.5
2023-04-29T01:28:56.573Z,21.5
2023-04-29T01:29:58.420Z,21.5
2023-04-29T01:31:00.351Z,21.5
2023-04-29T01:32:02.457Z,21.5
2023-04-29T01:33:04.308Z,21.5
2023-04-29T01:34:06.458Z,21.5
2023-04-29T01:35:08.283Z,21.5
2023-04-29T01:36:09.923Z,21.5
2023-04-29T01:37:11.853Z,21.5
2023-04-29T01:38:13.718Z,21.5
2023-04-29T01:39:15.585Z,21.5
2023-04-29T01:40:17.433Z,21.5
2023-04-29T01:41:19.218Z,21.5
2023-04-29T01:42:20.924Z,21.5
2023-04-29T01:43:22.805Z,21.5
2023-04-29T01:44:24.617Z,21.5
2023-04-29T01:45:26.467Z,21.5
2023-04-29T01:46:28.363Z,21.5
2023-04-29T01:47:30.448Z,21.5
2023-04-29T01:48:32.301Z,21.5
2023-04-29T01:49:34.177Z,21.5
2023-04-29T01:50:36.135Z,21.5
2023-04-29T01:51:37.907Z,21.5
2023-04-29T01:52:39.838Z,21.5
2023-04-29T01:53:41.604Z,21.5
2023-04-29T01:54:43.428Z,21.5
2023-04-29T01:55:45.176Z,21.5
2023-04-29T01:56:47.025Z,21.5
2023-04-29T01:57:48.844Z,21.5
2023-04-29T01:58:50.786Z,21.5
2023-04-29T01:59:52.867Z,21.5
2023-04-29T02:00:55.733Z,21.5
2023-04-29T02:01:57.821Z,21.5
2023-04-29T02:02:59.760Z,21.5
2023-04-29T02:04:02.385Z,21.5
2023-04-29T02:05:05.032Z,21.5
2023-04-29T02:06:06.984Z,21.5
2023-04-29T02:07:08.826Z,21.5
2023-04-29T02:08:10.906Z,21.5
2023-04-29T02:09:12.884Z,21.5
2023-04-29T02:10:15.070Z,21.5
2023-04-29T02:11:16.927Z,21.5
2023-04-29T02:12:18.672Z,21.5
2023-04-29T02:13:23.324Z,21.5
2023-04-29T02:14:25.296Z,21.5
2023-04-29T02:15:27.230Z,21.5
2023-04-29T02:16:29.232Z,21.4
2023-04-29T02:17:31.536Z,21.4
2023-04-29T02:18:33.357Z,21.4
2023-04-29T02:19:35.247Z,21.4
2023-04-29T02:20:37.191Z,21.4
2023-04-29T02:21:39.001Z,21.4
2023-04-29T02:22:40.857Z,21.4
2023-04-29T02:23:42.691Z,21.4
2023-04-29T02:24:44.620Z,21.4
2023-04-29T02:25:46.506Z,21.4
2023-04-29T02:26:48.425Z,21.3
2023-04-29T02:27:50.289Z,21.3
2023-04-29T02:28:54.622Z,21.3
2023-04-29T02:29:56.471Z,21.3
2023-04-29T02:30:58.341Z,21.3
2023-04-29T02:32:00.281Z,21.3
2023-04-29T02:33:02.259Z,21.3
2023-04-29T02:34:04.375Z,21.3
2023-04-29T02:35:06.123Z,21.3
2023-04-29T02:36:07.983Z,21.3
2023-04-29T02:37:09.808Z,21.2
2023-04-29T02:38:11.929Z,21.2
2023-04-29T02:39:13.867Z,21.2
2023-04-29T02:40:15.684Z,21.2
2023-04-29T02:41:20.056Z,21.2
2023-04-29T02:42:21.930Z,21.2
2023-04-29T02:43:23.736Z,21.2
2023-04-29T02:44:25.471Z,21.2
2023-04-29T02:45:27.095Z,21.2
2023-04-29T02:46:29.077Z,21.2
2023-04-29T02:47:31.329Z,21.2
2023-04-29T02:48:33.254Z,21.2
2023-04-29T02:49:34.917Z,21.2
2023-04-29T02:50:36.646Z,21.2
2023-04-29T02:51:38.539Z,21.2
2023-04-29T02:52:40.414Z,21.2
2023-04-29T02:53:42.185Z,21.2
2023-04-29T02:54:44.005Z,21.2
2023-04-29T02:55:45.897Z,21.2
2023-04-29T02:56:47.750Z,21.2
2023-04-29T02:57:49.599Z,21.2
2023-04-29T02:58:51.540Z,21.2
2023-04-29T02:59:53.695Z,21.2
2023-04-29T03:00:56.148Z,21.2
2023-04-29T03:01:58.248Z,21.1
2023-04-29T03:03:02.629Z,21.1
2023-04-29T03:04:05.546Z,21.1
2023-04-29T03:05:07.832Z,21.1
2023-04-29T03:06:09.621Z,21.1
2023-04-29T03:07:11.493Z,21.1
2023-04-29T03:08:13.331Z,21.1
2023-04-29T03:09:15.223Z,21.1
2023-04-29T03:10:17.183Z,21.1
2023-04-29T03:11:19.127Z,21.1
2023-04-29T03:12:21.037Z,21.1
2023-04-29T03:13:22.850Z,21.1
2023-04-29T03:14:24.796Z,21.1
2023-04-29T03:15:26.695Z,21.1
2023-04-29T03:16:28.452Z,21.1
2023-04-29T03:17:30.736Z,21
2023-04-29T03:18:32.740Z,21
2023-04-29T03:19:34.671Z,21
2023-04-29T03:20:36.535Z,21
2023-04-29T03:21:38.391Z,21.1
2023-04-29T03:22:40.310Z,21.1
2023-04-29T03:23:42.193Z,21.1
2023-04-29T03:24:44.242Z,21
2023-04-29T03:25:46.201Z,21.1
2023-04-29T03:26:48.255Z,21.1
2023-04-29T03:27:50.082Z,21.1
2023-04-29T03:28:51.873Z,21.1
2023-04-29T03:29:53.943Z,21
2023-04-29T03:30:56.747Z,21
2023-04-29T03:31:58.759Z,21
2023-04-29T03:33:00.910Z,21
2023-04-29T03:34:03.053Z,21.1
2023-04-29T03:35:04.901Z,21.1
2023-04-29T03:36:06.838Z,21.1
2023-04-29T03:37:11.359Z,21.1
2023-04-29T03:38:13.163Z,21
2023-04-29T03:39:14.957Z,21
2023-04-29T03:40:16.844Z,21
2023-04-29T03:41:18.791Z,21
2023-04-29T03:42:20.642Z,21
2023-04-29T03:43:22.531Z,21
2023-04-29T03:44:24.314Z,21
2023-04-29T03:45:26.208Z,21
2023-04-29T03:46:28.126Z,21
2023-04-29T03:47:30.405Z,21
2023-04-29T03:48:32.688Z,21
2023-04-29T03:49:34.564Z,21
2023-04-29T03:50:36.324Z,21
2023-04-29T03:51:38.183Z,21
2023-04-29T03:52:40.093Z,21
2023-04-29T03:53:41.978Z,21
2023-04-29T03:54:43.837Z,20.9
2023-04-29T03:55:45.734Z,20.9
2023-04-29T03:56:47.595Z,20.9
2023-04-29T03:57:49.385Z,20.9
2023-04-29T03:58:51.294Z,20.9
2023-04-29T03:59:53.301Z,20.9
2023-04-29T04:00:56.263Z,20.9
2023-04-29T04:01:58.189Z,21
2023-04-29T04:03:01.426Z,21
2023-04-29T04:04:08.001Z,21
2023-04-29T04:05:10.987Z,21
2023-04-29T04:06:13.422Z,21
2023-04-29T04:07:15.215Z,21
2023-04-29T04:08:17.098Z,21
2023-04-29T04:09:19.004Z,21
2023-04-29T04:10:20.803Z,21
2023-04-29T04:11:22.558Z,20.9
2023-04-29T04:12:24.417Z,20.9
2023-04-29T04:13:26.237Z,20.9
2023-04-29T04:14:28.146Z,20.9
2023-04-29T04:15:30.038Z,20.9
2023-04-29T04:16:31.907Z,20.9
2023-04-29T04:17:34.077Z,20.9
2023-04-29T04:18:36.116Z,20.9
2023-04-29T04:19:37.916Z,20.9
2023-04-29T04:20:39.761Z,20.9
2023-04-29T04:21:41.552Z,20.9
2023-04-29T04:22:43.397Z,20.9
2023-04-29T04:23:45.263Z,20.9
2023-04-29T04:24:47.136Z,20.9
2023-04-29T04:25:48.998Z,20.9
2023-04-29T04:26:50.960Z,20.9
2023-04-29T04:27:52.858Z,20.9
2023-04-29T04:28:54.771Z,20.9
2023-04-29T04:29:56.480Z,20.9
2023-04-29T04:30:58.350Z,20.9
2023-04-29T04:32:00.319Z,20.9
2023-04-29T04:33:02.362Z,20.9
2023-04-29T04:34:04.297Z,20.9
2023-04-29T04:35:06.212Z,20.9
2023-04-29T04:36:08.119Z,20.9
2023-04-29T04:37:09.923Z,20.9
2023-04-29T04:38:11.840Z,21
2023-04-29T04:39:13.717Z,21
2023-04-29T04:40:15.470Z,21
2023-04-29T04:41:17.320Z,21
2023-04-29T04:42:19.069Z,21
2023-04-29T04:43:20.941Z,21
2023-04-29T04:44:22.761Z,21
2023-04-29T04:45:24.643Z,21
2023-04-29T04:46:26.669Z,21
2023-04-29T04:47:28.625Z,21
2023-04-29T04:48:30.582Z,21
2023-04-29T04:49:32.431Z,21
2023-04-29T04:50:34.376Z,21
2023-04-29T04:51:36.296Z,21
2023-04-29T04:52:40.946Z,21
2023-04-29T04:53:42.695Z,21
2023-04-29T04:54:44.516Z,21
2023-04-29T04:55:49.194Z,21
2023-04-29T04:56:51.119Z,21
2023-04-29T04:57:52.964Z,21
2023-04-29T04:58:54.842Z,21
2023-04-29T04:59:56.598Z,21.1
2023-04-29T05:00:58.507Z,21.1
2023-04-29T05:02:00.838Z,21.1
2023-04-29T05:03:02.948Z,21.1
2023-04-29T05:04:05.463Z,21.1
2023-04-29T05:05:07.869Z,21.1
2023-04-29T05:06:09.751Z,21.2
2023-04-29T05:07:11.479Z,21.2
2023-04-29T05:08:13.313Z,21.2
2023-04-29T05:09:15.218Z,21.2
2023-04-29T05:10:17.113Z,21.2
2023-04-29T05:11:18.963Z,21.2
2023-04-29T05:12:20.825Z,21.3
2023-04-29T05:13:22.671Z,21.3
2023-04-29T05:14:24.469Z,21.3
2023-04-29T05:15:26.360Z,21.3
2023-04-29T05:16:28.329Z,21.3
2023-04-29T05:17:30.173Z,21.3
2023-04-29T05:18:32.213Z,21.4
2023-04-29T05:19:33.982Z,21.4
2023-04-29T05:20:35.877Z,21.4
2023-04-29T05:21:37.694Z,21.4
2023-04-29T05:22:39.600Z,21.4
2023-04-29T05:23:41.501Z,21.4
2023-04-29T05:24:43.388Z,21.4
2023-04-29T05:25:45.274Z,21.4
2023-04-29T05:26:47.225Z,21.4
2023-04-29T05:27:49.061Z,21.4
2023-04-29T05:28:50.823Z,21.4
2023-04-29T05:29:52.886Z,21.4
2023-04-29T05:30:55.870Z,21.5
2023-04-29T05:31:58.008Z,21.5
2023-04-29T05:32:59.888Z,21.5
2023-04-29T05:34:02.120Z,21.4
2023-04-29T05:35:06.030Z,21.5
2023-04-29T05:36:09.489Z,21.5
2023-04-29T05:37:11.284Z,21.5
2023-04-29T05:38:13.236Z,21.5
2023-04-29T05:39:15.176Z,21.5
2023-04-29T05:40:17.003Z,21.5
2023-04-29T05:41:18.858Z,21.5
2023-04-29T05:42:20.686Z,21.5
2023-04-29T05:43:22.438Z,21.5
2023-04-29T05:44:24.306Z,21.5
2023-04-29T05:45:26.081Z,21.4
2023-04-29T05:46:28.080Z,21.4
2023-04-29T05:47:30.197Z,21.4
2023-04-29T05:48:32.376Z,21.5
2023-04-29T05:49:34.270Z,21.5
2023-04-29T05:50:36.110Z,21.5
2023-04-29T05:51:37.939Z,21.5
2023-04-29T05:52:39.824Z,21.5
2023-04-29T05:53:41.729Z,21.6
2023-04-29T05:54:43.671Z,21.6
2023-04-29T05:55:45.706Z,21.6
2023-04-29T05:56:47.527Z,21.6
2023-04-29T05:57:49.376Z,21.6
2023-04-29T05:58:51.483Z,21.6
2023-04-29T05:59:53.480Z,21.7
2023-04-29T06:00:57.178Z,21.7
2023-04-29T06:02:01.723Z,21.7
2023-04-29T06:03:03.631Z,21.7
2023-04-29T06:04:06.301Z,21.7
2023-04-29T06:05:09.390Z,21.7
2023-04-29T06:06:12.527Z,21.8
2023-04-29T06:07:14.735Z,21.8
2023-04-29T06:08:16.629Z,21.8
2023-04-29T06:09:26.864Z,21.8
2023-04-29T06:10:30.227Z,21.9
2023-04-29T06:11:31.963Z,21.9
2023-04-29T06:12:33.868Z,21.9
2023-04-29T06:13:35.715Z,21.9
2023-04-29T06:14:37.612Z,21.9
2023-04-29T06:15:39.469Z,21.9
2023-04-29T06:16:41.371Z,21.9
2023-04-29T06:17:43.680Z,22
2023-04-29T06:18:45.758Z,22
2023-04-29T06:19:47.582Z,22
2023-04-29T06:20:49.425Z,22
2023-04-29T06:21:51.141Z,22.1
2023-04-29T06:22:53.022Z,22.1
2023-04-29T06:23:54.667Z,22.1
2023-04-29T06:24:56.576Z,22.2
2023-04-29T06:25:58.554Z,22.2
2023-04-29T06:27:00.426Z,22.2
2023-04-29T06:28:02.289Z,22.2
2023-04-29T06:29:04.120Z,22.3
2023-04-29T06:30:05.962Z,22.3
2023-04-29T06:31:07.922Z,22.3
2023-04-29T06:32:09.937Z,22.3
2023-04-29T06:33:11.957Z,22.3
2023-04-29T06:34:14.149Z,22.4
2023-04-29T06:35:15.958Z,22.4
2023-04-29T06:36:17.852Z,22.4
2023-04-29T06:37:19.746Z,22.4
2023-04-29T06:38:21.661Z,22.4
2023-04-29T06:39:23.540Z,22.4
2023-04-29T06:40:25.402Z,22.5
2023-04-29T06:41:27.335Z,22.5
2023-04-29T06:42:29.205Z,22.5
2023-04-29T06:43:31.058Z,22.5
2023-04-29T06:44:32.895Z,22.6
2023-04-29T06:45:34.748Z,22.6
2023-04-29T06:46:36.642Z,22.6
2023-04-29T06:47:39.008Z,22.6
2023-04-29T06:48:41.125Z,22.6
2023-04-29T06:49:43.028Z,22.7
2023-04-29T06:50:44.713Z,22.7
2023-04-29T06:51:46.633Z,22.7
2023-04-29T06:52:48.521Z,22.8
2023-04-29T06:53:50.273Z,22.8
2023-04-29T06:54:52.120Z,22.8
2023-04-29T06:55:53.864Z,22.8
2023-04-29T06:56:55.821Z,22.8
2023-04-29T06:57:57.658Z,22.9
2023-04-29T06:58:59.524Z,22.9
2023-04-29T07:00:01.397Z,22.9
2023-04-29T07:01:03.358Z,22.9
2023-04-29T07:02:05.634Z,22.9
2023-04-29T07:03:07.584Z,22.9
2023-04-29T07:04:10.016Z,22.9
2023-04-29T07:05:12.257Z,22.8
2023-04-29T07:06:14.113Z,22.9
2023-04-29T07:07:16.001Z,22.9
2023-04-29T07:08:17.940Z,22.9
2023-04-29T07:09:19.655Z,23
2023-04-29T07:10:21.449Z,23
2023-04-29T07:11:23.446Z,23
2023-04-29T07:12:25.304Z,23
2023-04-29T07:13:27.163Z,23
2023-04-29T07:14:28.931Z,23
2023-04-29T07:15:33.733Z,23
2023-04-29T07:16:35.728Z,23
2023-04-29T07:17:37.749Z,23
2023-04-29T07:18:39.727Z,23
2023-04-29T07:19:41.636Z,23
2023-04-29T07:20:43.524Z,22.9
2023-04-29T07:21:45.340Z,22.9
2023-04-29T07:22:47.149Z,22.9
2023-04-29T07:23:49.045Z,22.9
2023-04-29T07:24:50.935Z,22.9
2023-04-29T07:25:53.609Z,22.9
2023-04-29T07:26:55.410Z,22.9
2023-04-29T07:27:57.294Z,22.9
2023-04-29T07:28:59.313Z,22.9
2023-04-29T07:30:01.065Z,22.9
2023-04-29T07:31:03.032Z,22.9
2023-04-29T07:32:05.170Z,22.9
2023-04-29T07:33:07.083Z,22.9
2023-04-29T07:34:09.134Z,22.9
2023-04-29T07:35:10.934Z,22.9
2023-04-29T07:36:12.777Z,22.9
2023-04-29T07:37:14.803Z,22.9
2023-04-29T07:38:16.676Z,22.9
2023-04-29T07:39:18.530Z,22.9
2023-04-29T07:40:20.380Z,22.9
2023-04-29T07:41:22.223Z,22.9
2023-04-29T07:42:24.166Z,22.9
2023-04-29T07:43:26.025Z,22.9
2023-04-29T07:44:27.893Z,22.9
2023-04-29T07:45:29.721Z,22.9
2023-04-29T07:46:31.625Z,23
2023-04-29T07:47:33.643Z,23
2023-04-29T07:48:35.588Z,22.9
2023-04-29T07:49:37.462Z,22.9
2023-04-29T07:50:39.389Z,23
2023-04-29T07:51:41.232Z,23
2023-04-29T07:52:42.984Z,23
2023-04-29T07:53:44.841Z,23
2023-04-29T07:54:46.749Z,23
2023-04-29T07:55:48.386Z,23
2023-04-29T07:56:50.276Z,23
2023-04-29T07:57:52.130Z,23.1
2023-04-29T07:58:53.873Z,23.1
2023-04-29T07:59:55.672Z,23.1
2023-04-29T08:00:57.563Z,23.2
2023-04-29T08:01:59.501Z,23.2
2023-04-29T08:03:01.500Z,23.2
2023-04-29T08:04:04.032Z,23.2
2023-04-29T08:05:07.047Z,23.2
2023-04-29T08:06:10.788Z,23.2
2023-04-29T08:07:13.039Z,23.2
2023-04-29T08:08:15.127Z,23.2
2023-04-29T08:09:17.006Z,23.3
2023-04-29T08:10:18.756Z,23.3
2023-04-29T08:11:20.644Z,23.3
2023-04-29T08:12:22.533Z,23.3
2023-04-29T08:13:24.385Z,23.3
2023-04-29T08:14:26.307Z,23.3
2023-04-29T08:15:28.296Z,23.3
2023-04-29T08:16:30.250Z,23.3
2023-04-29T08:17:32.934Z,23.3
2023-04-29T08:18:34.763Z,23.3
2023-04-29T08:19:36.691Z,23.3
2023-04-29T08:20:38.596Z,23.4
2023-04-29T08:21:40.408Z,23.4
2023-04-29T08:22:42.358Z,23.4
2023-04-29T08:23:44.209Z,23.3
2023-04-29T08:24:46.153Z,23.4
2023-04-29T08:25:47.914Z,23.3
2023-04-29T08:26:49.770Z,23.3
2023-04-29T08:27:51.612Z,23.3
2023-04-29T08:28:53.455Z,23.3
2023-04-29T08:29:55.425Z,23.3
2023-04-29T08:30:57.284Z,23.3
2023-04-29T08:31:59.284Z,23.3
2023-04-29T08:33:01.643Z,23.4
2023-04-29T08:34:03.714Z,23.4
2023-04-29T08:35:05.605Z,23.4
2023-04-29T08:36:07.460Z,23.4
2023-04-29T08:37:09.384Z,23.4
2023-04-29T08:38:11.348Z,23.4
2023-04-29T08:39:13.159Z,23.3
2023-04-29T08:40:15.101Z,23.3
2023-04-29T08:41:17.054Z,23.3
2023-04-29T08:42:18.840Z,23.3
2023-04-29T08:43:21.001Z,23.3
2023-04-29T08:44:22.863Z,23.3
2023-04-29T08:45:24.846Z,23.4
2023-04-29T08:46:26.854Z,23.4
2023-04-29T08:47:28.656Z,23.4
2023-04-29T08:48:30.988Z,23.4
2023-04-29T08:49:33.245Z,23.5
2023-04-29T08:50:35.097Z,23.5
2023-04-29T08:51:37.154Z,23.5
2023-04-29T08:52:38.992Z,23.4
2023-04-29T08:53:40.953Z,23.4
2023-04-29T08:54:42.825Z,23.4
2023-04-29T08:55:44.432Z,23.4
2023-04-29T08:56:46.493Z,23.4
2023-04-29T08:57:48.345Z,23.3
2023-04-29T08:58:50.086Z,23.3
2023-04-29T08:59:51.976Z,23.3
2023-04-29T09:00:53.966Z,23.3
2023-04-29T09:01:56.049Z,23.3
2023-04-29T09:02:57.949Z,23.3
2023-04-29T09:04:00.329Z,23.3
2023-04-29T09:05:03.099Z,23.4
2023-04-29T09:06:05.696Z,23.4
2023-04-29T09:07:07.616Z,23.4
2023-04-29T09:08:09.540Z,23.4
2023-04-29T09:09:11.713Z,23.4
2023-04-29T09:10:13.412Z,23.4
2023-04-29T09:11:15.047Z,23.4
2023-04-29T09:12:16.908Z,23.4
2023-04-29T09:13:18.798Z,23.4
2023-04-29T09:14:20.705Z,23.4
2023-04-29T09:15:22.562Z,23.4
2023-04-29T09:16:24.325Z,23.5
2023-04-29T09:17:26.429Z,23.4
2023-04-29T09:18:28.509Z,23.4
2023-04-29T09:19:30.564Z,23.4
2023-04-29T09:20:32.411Z,23.4
2023-04-29T09:21:34.168Z,23.4
2023-04-29T09:22:36.069Z,23.5
2023-04-29T09:23:37.870Z,23.4
2023-04-29T09:24:39.693Z,23.4
2023-04-29T09:25:41.464Z,23.5
2023-04-29T09:26:43.744Z,23.4
2023-04-29T09:27:45.575Z,23.4
2023-04-29T09:28:47.428Z,23.4
2023-04-29T09:29:49.392Z,23.4
2023-04-29T09:30:51.228Z,23.4
2023-04-29T09:31:53.149Z,23.4
2023-04-29T09:32:55.455Z,23.4
2023-04-29T09:33:57.524Z,23.4
2023-04-29T09:34:59.338Z,23.4
2023-04-29T09:36:01.308Z,23.4
2023-04-29T09:37:03.194Z,23.5
2023-04-29T09:38:05.049Z,23.5
2023-04-29T09:39:06.951Z,23.5
2023-04-29T09:40:08.930Z,23.4
2023-04-29T09:41:10.764Z,23.4
2023-04-29T09:42:12.764Z,23.4
2023-04-29T09:43:14.901Z,23.4
2023-04-29T09:44:16.706Z,23.4
2023-04-29T09:45:18.488Z,23.4
2023-04-29T09:46:20.209Z,23.4
2023-04-29T09:47:22.239Z,23.4
2023-04-29T09:48:24.413Z,23.4
2023-04-29T09:49:26.372Z,23.5
2023-04-29T09:50:28.216Z,23.5
2023-04-29T09:51:30.061Z,23.5
2023-04-29T09:52:31.897Z,23.5
2023-04-29T09:53:33.843Z,23.5
2023-04-29T09:54:35.715Z,23.5
2023-04-29T09:55:40.285Z,23.5
2023-04-29T09:56:42.187Z,23.5
2023-04-29T09:57:45.142Z,23.5
2023-04-29T09:58:47.123Z,23.5
2023-04-29T09:59:48.963Z,23.5
2023-04-29T10:00:50.813Z,23.5
2023-04-29T10:01:52.711Z,23.5
2023-04-29T10:02:55.374Z,23.5
2023-04-29T10:03:57.784Z,23.5
2023-04-29T10:04:59.877Z,23.5
2023-04-29T10:06:01.945Z,23.5
2023-04-29T10:07:03.757Z,23.5
2023-04-29T10:08:05.761Z,23.5
2023-04-29T10:09:07.746Z,23.5
2023-04-29T10:10:09.525Z,23.5
2023-04-29T10:11:11.365Z,23.6
2023-04-29T10:12:13.116Z,23.6
2023-04-29T10:13:15.011Z,23.6
2023-04-29T10:14:16.823Z,23.6
2023-04-29T10:15:18.798Z,23.6
2023-04-29T10:16:20.725Z,23.6
2023-04-29T10:17:22.659Z,23.6
2023-04-29T10:18:24.526Z,23.6
2023-04-29T10:19:26.505Z,23.6
2023-04-29T10:20:28.434Z,23.6
2023-04-29T10:21:30.291Z,23.5
2023-04-29T10:22:32.260Z,23.5
2023-04-29T10:23:34.065Z,23.5
2023-04-29T10:24:36.014Z,23.5
2023-04-29T10:25:37.878Z,23.5
2023-04-29T10:26:39.718Z,23.5
2023-04-29T10:27:41.566Z,23.5
2023-04-29T10:28:43.328Z,23.5
2023-04-29T10:29:45.356Z,23.5
2023-04-29T10:30:47.321Z,23.6
2023-04-29T10:31:49.028Z,23.6
2023-04-29T10:32:52.365Z,23.6
2023-04-29T10:33:54.936Z,23.6
2023-04-29T10:34:56.777Z,23.6
2023-04-29T10:35:58.464Z,23.6
2023-04-29T10:37:00.422Z,23.6
2023-04-29T10:38:02.347Z,23.6
2023-04-29T10:39:04.248Z,23.6
2023-04-29T10:40:06.079Z,23.5
2023-04-29T10:41:07.994Z,23.6
2023-04-29T10:42:09.826Z,23.6
2023-04-29T10:43:11.675Z,23.6
2023-04-29T10:44:13.574Z,23.6
2023-04-29T10:45:15.301Z,23.6
2023-04-29T10:46:17.165Z,23.6
2023-04-29T10:47:19.403Z,23.6
2023-04-29T10:48:21.236Z,23.6
2023-04-29T10:49:25.387Z,23.6
2023-04-29T10:50:27.571Z,23.6
2023-04-29T10:51:29.359Z,23.6
2023-04-29T10:52:31.204Z,23.6
2023-04-29T10:53:32.957Z,23.6
2023-04-29T10:54:34.846Z,23.7
2023-04-29T10:55:36.745Z,23.7
2023-04-29T10:56:38.599Z,23.7
2023-04-29T10:57:40.334Z,23.7
2023-04-29T10:58:42.222Z,23.6
2023-04-29T10:59:44.154Z,23.6
2023-04-29T11:00:46.032Z,23.6
2023-04-29T11:01:48.470Z,23.6
2023-04-29T11:02:50.387Z,23.7
2023-04-29T11:03:52.826Z,23.7
2023-04-29T11:04:55.321Z,23.7
2023-04-29T11:05:58.416Z,23.7
2023-04-29T11:07:00.173Z,23.7
2023-04-29T11:08:02.026Z,23.7
2023-04-29T11:09:03.936Z,23.7
2023-04-29T11:10:05.827Z,23.7
2023-04-29T11:11:07.678Z,23.6
2023-04-29T11:12:09.553Z,23.6
2023-04-29T11:13:11.483Z,23.7
2023-04-29T11:14:13.296Z,23.7
2023-04-29T11:15:15.210Z,23.7
2023-04-29T11:16:17.149Z,23.7
2023-04-29T11:17:19.190Z,23.7
2023-04-29T11:18:21.147Z,23.7
2023-04-29T11:19:22.972Z,23.7
2023-04-29T11:20:24.916Z,23.7
2023-04-29T11:21:26.793Z,23.7
2023-04-29T11:22:28.564Z,23.7
2023-04-29T11:23:30.509Z,23.7
2023-04-29T11:24:32.486Z,23.7
2023-04-29T11:25:34.404Z,23.8
2023-04-29T11:26:36.867Z,23.7
2023-04-29T11:27:38.827Z,23.7
2023-04-29T11:28:40.803Z,23.7
2023-04-29T11:29:42.629Z,23.7
2023-04-29T11:30:47.121Z,23.7
2023-04-29T11:31:49.014Z,23.7
2023-04-29T11:32:51.155Z,23.7
2023-04-29T11:33:53.666Z,23.7
2023-04-29T11:34:55.718Z,23.7
2023-04-29T11:35:58.387Z,23.7
2023-04-29T11:37:00.278Z,23.7
2023-04-29T11:38:02.024Z,23.7
2023-04-29T11:39:03.888Z,23.7
2023-04-29T11:40:05.781Z,23.7
2023-04-29T11:41:07.687Z,23.7
2023-04-29T11:42:09.615Z,23.7
2023-04-29T11:43:11.470Z,23.7
2023-04-29T11:44:13.219Z,23.7
2023-04-29T11:45:15.098Z,23.7
2023-04-29T11:46:17.084Z,23.7
2023-04-29T11:47:19.265Z,23.7
2023-04-29T11:48:21.146Z,23.7
2023-04-29T11:49:25.579Z,23.7
2023-04-29T11:50:27.439Z,23.7
2023-04-29T11:51:29.367Z,23.7
2023-04-29T11:52:33.701Z,23.7
2023-04-29T11:53:35.620Z,23.7
2023-04-29T11:54:37.567Z,23.7
2023-04-29T11:55:39.476Z,23.7
2023-04-29T11:56:41.368Z,23.7
2023-04-29T11:57:43.152Z,23.6
2023-04-29T11:58:45.059Z,23.6
2023-04-29T11:59:46.951Z,23.6
2023-04-29T12:00:48.866Z,23.6
2023-04-29T12:01:50.648Z,23.6
2023-04-29T12:02:52.586Z,23.6
2023-04-29T12:03:55.382Z,23.6
2023-04-29T12:04:58.699Z,23.6
2023-04-29T12:06:03.079Z,23.7
2023-04-29T12:07:04.985Z,23.6
2023-04-29T12:08:07.124Z,23.6
2023-04-29T12:09:08.992Z,23.6
2023-04-29T12:10:10.949Z,23.6
2023-04-29T12:11:14.089Z,23.6
2023-04-29T12:12:16.054Z,23.6
2023-04-29T12:13:17.926Z,23.6
2023-04-29T12:14:19.787Z,23.7
2023-04-29T12:15:21.628Z,23.7
2023-04-29T12:16:23.510Z,23.7
2023-04-29T12:17:25.754Z,23.7
2023-04-29T12:18:27.838Z,23.7
2023-04-29T12:19:29.768Z,23.7
2023-04-29T12:20:31.601Z,23.7
2023-04-29T12:21:33.503Z,23.7
2023-04-29T12:22:35.405Z,23.7
2023-04-29T12:23:37.250Z,23.8
2023-04-29T12:24:38.897Z,23.8
2023-04-29T12:25:40.748Z,23.8
2023-04-29T12:26:42.569Z,23.8
2023-04-29T12:27:44.470Z,23.8
2023-04-29T12:28:46.321Z,23.8
2023-04-29T12:29:48.256Z,23.8
2023-04-29T12:30:50.350Z,23.8
2023-04-29T12:31:52.266Z,23.8
2023-04-29T12:32:55.134Z,23.8
2023-04-29T12:33:57.080Z,23.8
2023-04-29T12:34:58.924Z,23.8
2023-04-29T12:36:00.667Z,23.8
2023-04-29T12:37:02.517Z,23.8
2023-04-29T12:38:04.361Z,23.8
2023-04-29T12:39:06.220Z,23.8
2023-04-29T12:40:07.977Z,23.8
2023-04-29T12:41:09.730Z,23.8
2023-04-29T12:42:11.564Z,23.8
2023-04-29T12:43:13.458Z,23.8
2023-04-29T12:44:15.327Z,23.8
2023-04-29T12:45:17.190Z,23.8
2023-04-29T12:46:19.051Z,23.8
2023-04-29T12:47:23.851Z,23.8
2023-04-29T12:48:30.375Z,23.8
2023-04-29T12:49:35.569Z,23.8
2023-04-29T12:50:37.425Z,23.8
2023-04-29T12:51:39.602Z,23.8
2023-04-29T12:52:41.387Z,23.8
2023-04-29T12:53:43.294Z,23.8
2023-04-29T12:54:45.178Z,23.7
2023-04-29T12:55:46.921Z,23.8
2023-04-29T12:56:49.573Z,23.7
2023-04-29T12:57:51.704Z,23.7
2023-04-29T12:58:53.619Z,23.7
2023-04-29T12:59:55.604Z,23.8
2023-04-29T13:00:57.960Z,23.7
2023-04-29T13:02:01.700Z,23.7
2023-04-29T13:03:03.962Z,23.7
2023-04-29T13:04:07.174Z,23.7
2023-04-29T13:05:09.512Z,23.7
2023-04-29T13:06:11.529Z,23.7
2023-04-29T13:07:13.479Z,23.7
2023-04-29T13:08:15.900Z,23.7
2023-04-29T13:09:20.991Z,23.7
2023-04-29T13:10:22.821Z,23.7
2023-04-29T13:11:24.710Z,23.7
2023-04-29T13:12:31.631Z,23.7
2023-04-29T13:13:33.536Z,23.7
2023-04-29T13:14:35.475Z,23.7
2023-04-29T13:15:37.375Z,23.7
2023-04-29T13:16:39.168Z,23.7
2023-04-29T13:17:42.129Z,23.7
2023-04-29T13:18:53.373Z,23.7
2023-04-29T13:20:52.972Z,23.8
2023-04-29T13:21:57.797Z,23.8
2023-04-29T13:23:02.368Z,23.8
2023-04-29T13:24:04.273Z,23.8
2023-04-29T13:25:06.304Z,23.8
2023-04-29T13:26:08.333Z,23.8
2023-04-29T13:27:10.299Z,23.8
2023-04-29T13:28:12.297Z,23.8
2023-04-29T13:29:14.288Z,23.8
2023-04-29T13:30:16.253Z,23.8
2023-04-29T13:31:18.164Z,23.7
2023-04-29T13:32:20.823Z,23.8
2023-04-29T13:33:23.661Z,23.7
2023-04-29T13:34:25.812Z,23.7
2023-04-29T13:35:27.757Z,23.8
2023-04-29T13:36:29.655Z,23.7
2023-04-29T13:37:31.499Z,23.8
2023-04-29T13:38:33.353Z,23.8
2023-04-29T13:39:38.069Z,23.7
2023-04-29T13:40:45.785Z,23.7
2023-04-29T13:41:58.320Z,23.8
2023-04-29T13:43:06.172Z,23.8
2023-04-29T13:45:55.664Z,23.9
2023-04-29T13:46:58.558Z,23.8
2023-04-29T13:48:07.136Z,23.8
2023-04-29T13:53:41.941Z,24.1
2023-04-29T13:59:34.330Z,24.2
2023-04-29T14:03:16.366Z,24.2
2023-04-29T14:04:18.680Z,24.2
2023-04-29T14:05:21.556Z,24.2
2023-04-29T14:06:24.017Z,24.1
2023-04-29T14:07:25.871Z,24
2023-04-29T14:08:27.675Z,24